createdAt,value
2019-02-18T00:01:25.069Z,80.90
2019-02-18T00:03:55.633Z,81.50
2019-02-18T00:06:26.218Z,81.50
2019-02-18T00:08:56.891Z,81.70
2019-02-18T00:11:27.359Z,81.90
2019-02-18T00:13:57.837Z,81.70
2019-02-18T00:16:28.385Z,82.40
2019-02-18T00:18:58.954Z,82.10
2019-02-18T00:21:29.915Z,82.00
2019-02-18T00:24:00.407Z,82.00
2019-02-18T00:26:31.005Z,82.30
2019-02-18T00:29:01.552Z,82.50
2019-02-18T00:31:32.198Z,82.40
2019-02-18T00:34:02.785Z,82.90
2019-02-18T00:36:33.324Z,83.70
2019-02-18T00:39:05.179Z,83.90
2019-02-18T00:41:36.542Z,83.90
2019-02-18T00:44:07.106Z,84.50
2019-02-18T00:46:37.564Z,84.60
2019-02-18T00:49:08.224Z,84.40
2019-02-18T00:51:38.870Z,83.40
2019-02-18T00:54:09.488Z,83.70
2019-02-18T00:56:40.302Z,84.20
2019-02-18T00:59:10.854Z,84.50
2019-02-18T01:01:42.282Z,84.50
2019-02-18T01:04:14.090Z,85.00
2019-02-18T01:06:44.601Z,85.00
2019-02-18T01:09:15.278Z,84.80
2019-02-18T01:11:45.880Z,85.00
2019-02-18T01:14:16.582Z,85.00
2019-02-18T01:16:47.116Z,85.00
2019-02-18T01:19:19.264Z,84.90
2019-02-18T01:21:50.039Z,85.50
2019-02-18T01:24:20.735Z,85.60
2019-02-18T01:26:51.609Z,85.70
2019-02-18T01:29:23.129Z,86.60
2019-02-18T01:31:53.865Z,86.40
2019-02-18T01:34:24.393Z,86.40
2019-02-18T01:36:55.173Z,86.70
2019-02-18T01:39:25.659Z,86.50
2019-02-18T01:41:56.289Z,86.10
2019-02-18T01:44:26.991Z,86.50
2019-02-18T01:46:57.543Z,86.70
2019-02-18T01:49:28.213Z,86.80
2019-02-18T01:51:58.679Z,87.40
2019-02-18T01:54:29.315Z,87.50
2019-02-18T01:56:59.890Z,87.20
2019-02-18T01:59:30.507Z,87.50
2019-02-18T02:02:00.977Z,86.90
2019-02-18T02:04:31.613Z,87.20
2019-02-18T02:07:02.381Z,87.30
2019-02-18T02:09:32.960Z,87.60
2019-02-18T02:12:03.802Z,87.80
2019-02-18T02:14:34.401Z,88.10
2019-02-18T02:17:04.995Z,88.40
2019-02-18T02:19:35.484Z,88.50
2019-02-18T02:22:06.036Z,88.50
2019-02-18T02:24:36.694Z,88.00
2019-02-18T02:27:07.475Z,88.20
2019-02-18T02:29:38.066Z,88.40
2019-02-18T02:32:10.240Z,88.40
2019-02-18T02:34:40.828Z,88.40
2019-02-18T02:37:11.292Z,88.50
2019-02-18T02:39:41.891Z,88.50
2019-02-18T02:42:12.352Z,88.40
2019-02-18T02:44:42.946Z,88.40
2019-02-18T02:47:13.457Z,88.50
2019-02-18T02:49:43.995Z,88.60
2019-02-18T02:52:14.728Z,88.50
2019-02-18T02:54:45.303Z,88.50
2019-02-18T02:57:16.082Z,89.30
2019-02-18T02:59:46.595Z,88.60
2019-02-18T03:02:17.248Z,89.00
2019-02-18T03:04:47.878Z,89.00
2019-02-18T03:07:18.451Z,89.40
2019-02-18T03:09:49.011Z,88.60
2019-02-18T03:12:19.566Z,88.40
2019-02-18T03:14:50.090Z,87.70
2019-02-18T03:17:20.664Z,87.60
2019-02-18T03:19:51.187Z,88.00
2019-02-18T03:22:21.753Z,88.20
2019-02-18T03:25:26.104Z,87.80
2019-02-18T03:28:09.584Z,88.00
2019-02-18T03:30:43.737Z,88.00
2019-02-18T03:33:16.455Z,88.20
2019-02-18T03:35:47.009Z,88.20
2019-02-18T03:38:17.666Z,88.30
2019-02-18T03:40:48.178Z,88.90
2019-02-18T03:43:18.665Z,87.90
2019-02-18T03:45:49.340Z,88.10
2019-02-18T03:48:19.969Z,88.80
2019-02-18T03:50:50.629Z,87.80
2019-02-18T03:53:21.150Z,87.80
2019-02-18T03:55:51.713Z,88.10
2019-02-18T03:58:22.494Z,88.20
2019-02-18T04:00:53.195Z,88.60
2019-02-18T04:03:23.872Z,88.20
2019-02-18T04:05:54.450Z,88.20
2019-02-18T04:08:25.189Z,88.20
2019-02-18T04:10:55.814Z,88.20
2019-02-18T04:13:26.374Z,88.50
2019-02-18T04:15:57.328Z,88.40
2019-02-18T04:18:27.853Z,88.60
2019-02-18T04:20:58.687Z,88.90
2019-02-18T04:23:29.158Z,89.00
2019-02-18T04:25:59.769Z,88.70
2019-02-18T04:28:30.534Z,88.80
2019-02-18T04:31:01.130Z,88.20
2019-02-18T04:33:31.806Z,88.60
2019-02-18T04:36:02.480Z,88.40
2019-02-18T04:38:33.126Z,88.30
2019-02-18T04:41:03.708Z,88.90
2019-02-18T04:43:34.409Z,89.10
2019-02-18T04:46:05.105Z,89.30
2019-02-18T04:48:35.713Z,88.80
2019-02-18T04:51:06.317Z,88.10
2019-02-18T04:53:37.165Z,88.10
2019-02-18T04:56:07.755Z,88.30
2019-02-18T04:58:38.359Z,88.60
2019-02-18T05:01:08.994Z,88.20
2019-02-18T05:03:39.561Z,88.10
2019-02-18T05:06:10.378Z,88.90
2019-02-18T05:08:41.054Z,88.80
2019-02-18T05:11:11.887Z,89.90
2019-02-18T05:13:42.508Z,89.40
2019-02-18T05:16:14.014Z,89.80
2019-02-18T05:18:44.693Z,89.40
2019-02-18T05:21:15.339Z,89.20
2019-02-18T05:23:45.891Z,89.50
2019-02-18T05:26:16.808Z,88.60
2019-02-18T05:28:47.510Z,88.80
2019-02-18T05:31:18.112Z,88.10
2019-02-18T05:33:48.685Z,88.00
2019-02-18T05:36:19.354Z,88.50
2019-02-18T05:38:49.986Z,88.70
2019-02-18T05:41:20.542Z,88.00
2019-02-18T05:43:51.156Z,89.10
2019-02-18T05:46:21.731Z,89.60
2019-02-18T05:48:52.391Z,90.10
2019-02-18T05:51:22.990Z,90.10
2019-02-18T05:53:53.753Z,89.20
2019-02-18T05:56:24.971Z,89.60
2019-02-18T05:58:55.563Z,89.40
2019-02-18T06:01:26.410Z,89.60
2019-02-18T06:04:00.002Z,89.00
2019-02-18T06:06:29.321Z,88.80
2019-02-18T06:09:00.118Z,88.30
2019-02-18T06:11:30.683Z,87.50
2019-02-18T06:14:01.217Z,88.20
2019-02-18T06:16:32.061Z,88.20
2019-02-18T06:19:02.773Z,87.70
2019-02-18T06:21:33.434Z,86.90
2019-02-18T06:24:03.966Z,85.50
2019-02-18T06:26:34.549Z,85.10
2019-02-18T06:29:05.457Z,84.50
2019-02-18T06:31:38.566Z,83.90
2019-02-18T06:34:09.262Z,84.00
2019-02-18T06:36:39.898Z,83.00
2019-02-18T06:39:10.408Z,81.80
2019-02-18T06:41:41.317Z,81.40
2019-02-18T06:44:11.812Z,80.20
2019-02-18T06:46:59.156Z,79.40
2019-02-18T06:49:30.356Z,78.50
2019-02-18T06:52:00.820Z,78.00
2019-02-18T06:54:31.374Z,77.20
2019-02-18T06:57:20.790Z,76.40
2019-02-18T07:00:02.943Z,75.10
2019-02-18T07:02:39.104Z,73.30
2019-02-18T07:05:18.716Z,72.90
2019-02-18T07:08:20.367Z,72.80
2019-02-18T07:11:00.200Z,71.50
2019-02-18T07:13:30.746Z,72.40
2019-02-18T07:16:01.515Z,72.10
2019-02-18T07:18:32.155Z,73.20
2019-02-18T07:21:02.825Z,72.80
2019-02-18T07:23:34.463Z,73.10
2019-02-18T07:26:04.950Z,72.50
2019-02-18T07:28:35.617Z,71.40
2019-02-18T07:31:06.237Z,71.60
2019-02-18T07:33:36.721Z,71.60
2019-02-18T07:36:07.530Z,70.10
2019-02-18T07:38:38.072Z,70.10
2019-02-18T07:41:08.817Z,70.00
2019-02-18T07:43:39.376Z,69.30
2019-02-18T07:46:10.086Z,68.60
2019-02-18T07:48:40.678Z,67.90
2019-02-18T07:51:11.484Z,66.90
2019-02-18T07:53:42.048Z,65.90
2019-02-18T07:56:12.672Z,65.80
2019-02-18T07:58:43.223Z,64.70
2019-02-18T08:01:13.857Z,64.00
2019-02-18T08:03:44.442Z,63.00
2019-02-18T08:06:14.994Z,61.30
2019-02-18T08:08:45.489Z,60.70
2019-02-18T08:11:16.012Z,61.50
2019-02-18T08:13:46.547Z,61.50
2019-02-18T08:16:17.245Z,59.70
2019-02-18T08:18:49.547Z,59.30
2019-02-18T08:21:20.286Z,58.80
2019-02-18T08:23:59.688Z,58.00
2019-02-18T08:26:23.206Z,57.20
2019-02-18T08:28:54.081Z,56.70
2019-02-18T08:31:24.625Z,56.00
2019-02-18T08:33:55.536Z,54.30
2019-02-18T08:36:27.883Z,55.00
2019-02-18T08:38:59.323Z,55.10
2019-02-18T08:41:30.641Z,55.20
2019-02-18T08:44:01.345Z,55.60
2019-02-18T08:46:31.927Z,53.90
2019-02-18T08:49:02.644Z,53.00
2019-02-18T08:51:33.114Z,53.60
2019-02-18T08:54:03.849Z,52.90
2019-02-18T08:56:34.407Z,52.30
2019-02-18T08:59:05.005Z,51.90
2019-02-18T09:01:35.691Z,51.60
2019-02-18T09:04:06.625Z,53.20
2019-02-18T09:06:37.849Z,51.90
2019-02-18T09:09:08.560Z,50.80
2019-02-18T09:11:39.264Z,49.10
2019-02-18T09:14:09.843Z,47.50
2019-02-18T09:16:40.425Z,47.70
2019-02-18T09:19:10.932Z,48.60
2019-02-18T09:21:41.564Z,49.00
2019-02-18T09:24:21.952Z,49.00
2019-02-18T09:26:52.572Z,47.40
2019-02-18T09:29:23.451Z,47.80
2019-02-18T09:31:54.308Z,46.90
2019-02-18T09:34:24.817Z,47.10
2019-02-18T09:36:56.245Z,45.00
2019-02-18T09:39:31.232Z,42.60
2019-02-18T09:41:59.183Z,43.60
2019-02-18T09:44:29.754Z,43.40
2019-02-18T09:47:00.881Z,43.90
2019-02-18T09:49:31.403Z,42.50
2019-02-18T09:52:01.983Z,42.00
2019-02-18T09:54:32.613Z,42.10
2019-02-18T09:57:03.274Z,41.50
2019-02-18T09:59:33.908Z,41.30
2019-02-18T10:02:04.739Z,40.50
2019-02-18T10:04:35.658Z,39.70
2019-02-18T10:07:06.162Z,38.90
2019-02-18T10:09:36.761Z,38.90
2019-02-18T10:12:17.759Z,38.90
2019-02-18T10:14:39.829Z,38.90
2019-02-18T10:17:10.371Z,38.00
2019-02-18T10:19:42.998Z,38.10
2019-02-18T10:22:13.337Z,38.10
2019-02-18T10:24:50.738Z,37.60
2019-02-18T10:27:18.931Z,38.10
2019-02-18T10:29:49.661Z,39.20
2019-02-18T10:32:20.500Z,38.70
2019-02-18T10:34:51.637Z,39.40
2019-02-18T10:37:22.179Z,39.90
2019-02-18T10:39:52.856Z,39.80
2019-02-18T10:42:23.498Z,39.60
2019-02-18T10:44:54.076Z,39.60
2019-02-18T10:47:24.962Z,40.00
2019-02-18T10:49:55.568Z,40.00
2019-02-18T10:52:26.547Z,40.00
2019-02-18T10:54:57.428Z,39.60
2019-02-18T10:57:28.087Z,39.90
2019-02-18T10:59:59.372Z,40.80
2019-02-18T11:02:30.058Z,40.80
2019-02-18T11:05:01.718Z,40.40
2019-02-18T11:07:32.400Z,40.70
2019-02-18T11:10:03.087Z,40.70
2019-02-18T11:12:33.682Z,41.10
2019-02-18T11:15:04.325Z,40.60
2019-02-18T11:17:38.852Z,40.70
2019-02-18T11:20:09.137Z,40.50
2019-02-18T11:22:39.657Z,40.90
2019-02-18T11:25:10.697Z,41.00
2019-02-18T11:27:41.407Z,40.30
2019-02-18T11:30:13.672Z,40.10
2019-02-18T11:32:44.256Z,40.70
2019-02-18T11:35:14.759Z,40.90
2019-02-18T11:37:46.341Z,41.30
2019-02-18T11:40:16.896Z,42.00
2019-02-18T11:42:47.461Z,42.60
2019-02-18T11:45:17.973Z,41.30
2019-02-18T11:47:48.671Z,40.00
2019-02-18T11:50:19.271Z,40.30
2019-02-18T11:52:49.837Z,40.00
2019-02-18T11:55:20.434Z,39.60
2019-02-18T11:57:50.920Z,39.30
2019-02-18T12:00:21.459Z,39.30
2019-02-18T12:03:02.447Z,39.30
2019-02-18T12:05:24.339Z,38.70
2019-02-18T12:07:54.996Z,38.60
2019-02-18T12:10:25.813Z,39.00
2019-02-18T12:12:56.519Z,38.80
2019-02-18T12:15:27.108Z,39.00
2019-02-18T12:17:57.739Z,39.00
2019-02-18T12:20:28.339Z,39.00
2019-02-18T12:22:59.022Z,39.30
2019-02-18T12:25:29.739Z,39.00
2019-02-18T12:28:08.222Z,38.40
2019-02-18T12:30:39.195Z,37.90
2019-02-18T12:33:10.360Z,37.50
2019-02-18T12:35:41.178Z,37.10
2019-02-18T12:38:11.736Z,36.60
2019-02-18T12:40:42.742Z,36.80
2019-02-18T12:43:13.679Z,36.50
2019-02-18T12:45:44.651Z,36.40
2019-02-18T12:48:15.366Z,36.70
2019-02-18T12:50:46.628Z,36.50
2019-02-18T12:53:17.547Z,35.90
2019-02-18T12:55:48.187Z,35.50
2019-02-18T12:58:19.216Z,35.00
2019-02-18T13:00:50.420Z,34.40
2019-02-18T13:03:21.079Z,34.30
2019-02-18T13:05:51.938Z,34.60
2019-02-18T13:08:25.052Z,34.50
2019-02-18T13:10:55.122Z,36.00
2019-02-18T13:13:25.908Z,36.60
2019-02-18T13:15:56.893Z,35.00
2019-02-18T13:18:27.963Z,34.30
2019-02-18T13:20:58.736Z,34.70
2019-02-18T13:23:29.565Z,34.10
2019-02-18T13:26:00.312Z,33.60
2019-02-18T13:28:31.463Z,33.30
2019-02-18T13:31:01.916Z,33.30
2019-02-18T13:33:34.393Z,33.30
2019-02-18T13:36:10.531Z,33.40
2019-02-18T13:38:41.441Z,33.20
2019-02-18T13:41:12.246Z,33.60
2019-02-18T13:43:44.177Z,33.30
2019-02-18T13:46:15.480Z,32.90
2019-02-18T13:48:45.992Z,33.10
2019-02-18T13:51:24.047Z,32.50
2019-02-18T13:53:49.372Z,31.80
2019-02-18T13:56:20.406Z,32.10
2019-02-18T13:58:51.323Z,32.30
2019-02-18T14:01:22.004Z,33.30
2019-02-18T14:03:53.094Z,33.30
2019-02-18T14:06:23.600Z,33.40
2019-02-18T14:08:54.679Z,33.30
2019-02-18T14:11:25.423Z,33.40
2019-02-18T14:13:57.313Z,33.30
2019-02-18T14:16:27.965Z,33.40
2019-02-18T14:18:58.675Z,34.00
2019-02-18T14:21:29.689Z,34.20
2019-02-18T14:24:00.638Z,35.00
2019-02-18T14:26:33.122Z,36.60
2019-02-18T14:29:03.959Z,37.50
2019-02-18T14:31:34.832Z,37.60
2019-02-18T14:34:07.090Z,36.70
2019-02-18T14:36:38.045Z,36.10
2019-02-18T14:39:19.187Z,36.60
2019-02-18T14:41:50.460Z,36.90
2019-02-18T14:44:21.372Z,37.20
2019-02-18T14:46:52.489Z,37.90
2019-02-18T14:49:23.977Z,38.00
2019-02-18T14:51:54.875Z,38.80
2019-02-18T14:54:25.981Z,39.00
2019-02-18T14:56:56.946Z,39.80
2019-02-18T14:59:27.468Z,40.10
2019-02-18T15:01:58.407Z,40.60
2019-02-18T15:04:29.398Z,40.70
2019-02-18T15:07:00.498Z,40.70
2019-02-18T15:09:31.250Z,40.90
2019-02-18T15:12:02.058Z,41.00
2019-02-18T15:14:32.749Z,40.70
2019-02-18T15:17:03.959Z,41.00
2019-02-18T15:19:34.456Z,40.90
2019-02-18T15:22:05.148Z,40.90
2019-02-18T15:24:35.865Z,41.30
2019-02-18T15:27:06.792Z,41.60
2019-02-18T15:29:37.534Z,42.00
2019-02-18T15:32:08.529Z,42.10
2019-02-18T15:34:39.561Z,42.30
2019-02-18T15:37:10.426Z,42.50
2019-02-18T15:39:41.635Z,42.60
2019-02-18T15:42:13.127Z,43.20
2019-02-18T15:44:44.100Z,43.80
2019-02-18T15:47:15.299Z,44.10
2019-02-18T15:49:46.980Z,44.70
2019-02-18T15:52:18.301Z,45.10
2019-02-18T15:54:49.372Z,45.40
2019-02-18T15:57:21.889Z,45.70
2019-02-18T15:59:52.609Z,46.10
2019-02-18T16:02:25.029Z,46.30
2019-02-18T16:04:55.789Z,46.50
2019-02-18T16:07:26.949Z,46.90
2019-02-18T16:09:57.661Z,47.30
2019-02-18T16:12:28.354Z,47.70
2019-02-18T16:14:59.189Z,48.20
2019-02-18T16:17:29.855Z,48.20
2019-02-18T16:20:00.716Z,48.60
2019-02-18T16:22:31.648Z,48.80
2019-02-18T16:25:02.359Z,49.10
2019-02-18T16:27:33.516Z,49.60
2019-02-18T16:30:04.647Z,50.00
2019-02-18T16:32:35.641Z,50.20
2019-02-18T16:35:06.664Z,50.60
2019-02-18T16:37:38.094Z,50.90
2019-02-18T16:40:11.024Z,51.10
2019-02-18T16:42:41.944Z,51.30
2019-02-18T16:45:13.620Z,51.40
2019-02-18T16:47:44.866Z,51.80
2019-02-18T16:50:15.611Z,52.10
2019-02-18T16:52:46.630Z,52.00
2019-02-18T16:55:17.251Z,52.00
2019-02-18T16:57:47.848Z,52.20
2019-02-18T17:00:37.815Z,52.20
2019-02-18T17:03:08.659Z,52.20
2019-02-18T17:05:39.639Z,52.20
2019-02-18T17:08:11.777Z,52.30
2019-02-18T17:10:43.305Z,52.40
2019-02-18T17:13:14.052Z,52.80
2019-02-18T17:15:45.180Z,53.00
2019-02-18T17:18:16.429Z,53.10
2019-02-18T17:20:47.547Z,53.20
2019-02-18T17:23:18.521Z,53.40
2019-02-18T17:25:49.515Z,53.50
2019-02-18T17:28:20.321Z,53.50
2019-02-18T17:30:51.713Z,54.10
2019-02-18T17:33:22.457Z,54.10
2019-02-18T17:35:53.516Z,54.40
2019-02-18T17:38:24.412Z,54.80
2019-02-18T17:40:56.627Z,55.00
2019-02-18T17:43:27.807Z,55.20
2019-02-18T17:45:58.977Z,55.50
2019-02-18T17:48:30.520Z,55.50
2019-02-18T17:51:02.212Z,56.00
2019-02-18T17:53:33.188Z,55.90
2019-02-18T17:56:05.669Z,56.80
2019-02-18T17:58:36.515Z,56.30
2019-02-18T18:01:07.592Z,56.70
2019-02-18T18:03:38.528Z,56.90
2019-02-18T18:06:09.399Z,57.30
2019-02-18T18:08:40.238Z,57.70
2019-02-18T18:11:11.085Z,57.90
2019-02-18T18:13:41.730Z,58.10
2019-02-18T18:16:12.884Z,58.10
2019-02-18T18:18:43.812Z,58.60
2019-02-18T18:21:15.080Z,58.70
2019-02-18T18:23:45.896Z,59.00
2019-02-18T18:26:17.021Z,59.60
2019-02-18T18:28:47.961Z,59.90
2019-02-18T18:31:19.654Z,60.00
2019-02-18T18:33:50.621Z,60.00
2019-02-18T18:36:22.492Z,60.70
2019-02-18T18:38:53.346Z,60.80
2019-02-18T18:41:24.214Z,61.00
2019-02-18T18:43:55.155Z,61.60
2019-02-18T18:46:26.270Z,61.70
2019-02-18T18:48:57.215Z,61.90
2019-02-18T18:51:28.160Z,62.50
2019-02-18T18:53:59.293Z,62.90
2019-02-18T18:56:30.134Z,62.80
2019-02-18T18:59:01.199Z,62.60
2019-02-18T19:01:33.821Z,62.10
2019-02-18T19:04:04.835Z,62.30
2019-02-18T19:06:36.069Z,62.30
2019-02-18T19:09:07.489Z,62.60
2019-02-18T19:11:38.701Z,62.70
2019-02-18T19:14:09.605Z,62.90
2019-02-18T19:16:40.842Z,63.60
2019-02-18T19:19:11.858Z,63.70
2019-02-18T19:21:43.111Z,64.10
2019-02-18T19:24:13.995Z,64.40
2019-02-18T19:26:44.929Z,64.70
2019-02-18T19:29:16.142Z,65.30
2019-02-18T19:31:47.286Z,65.30
2019-02-18T19:34:18.177Z,65.50
2019-02-18T19:36:49.248Z,66.00
2019-02-18T19:39:20.007Z,66.30
2019-02-18T19:41:50.927Z,66.30
2019-02-18T19:44:21.921Z,66.20
2019-02-18T19:46:54.272Z,66.20
2019-02-18T19:49:25.940Z,66.30
2019-02-18T19:51:56.691Z,66.20
2019-02-18T19:54:27.919Z,66.70
2019-02-18T19:56:58.735Z,68.20
2019-02-18T19:59:29.531Z,67.60
2019-02-18T20:02:00.106Z,67.50
2019-02-18T20:04:31.003Z,68.60
2019-02-18T20:07:01.754Z,68.20
2019-02-18T20:09:32.805Z,68.10
2019-02-18T20:12:03.802Z,68.20
2019-02-18T20:14:34.698Z,68.20
2019-02-18T20:17:06.831Z,68.80
2019-02-18T20:19:37.703Z,68.80
2019-02-18T20:22:08.834Z,69.40
2019-02-18T20:24:39.858Z,68.70
2019-02-18T20:27:10.625Z,69.80
2019-02-18T20:29:41.616Z,69.70
2019-02-18T20:32:12.575Z,69.70
2019-02-18T20:34:43.552Z,70.30
2019-02-18T20:37:14.969Z,70.90
2019-02-18T20:39:45.881Z,71.20
2019-02-18T20:42:17.133Z,71.10
2019-02-18T20:44:48.132Z,71.20
2019-02-18T20:47:19.241Z,71.10
2019-02-18T20:49:49.985Z,71.40
2019-02-18T20:52:21.065Z,71.20
2019-02-18T20:54:52.394Z,71.50
2019-02-18T20:57:23.140Z,71.70
2019-02-18T20:59:54.397Z,72.00
2019-02-18T21:02:25.404Z,71.90
2019-02-18T21:04:56.189Z,72.30
2019-02-18T21:07:27.023Z,72.50
2019-02-18T21:09:57.726Z,72.50
2019-02-18T21:12:29.823Z,72.70
2019-02-18T21:15:00.565Z,72.70
2019-02-18T21:17:31.720Z,72.60
2019-02-18T21:20:02.576Z,73.00
2019-02-18T21:22:33.461Z,73.30
2019-02-18T21:25:04.777Z,73.90
2019-02-18T21:27:35.561Z,73.90
2019-02-18T21:30:07.340Z,73.70
2019-02-18T21:32:39.979Z,74.00
2019-02-18T21:35:12.111Z,74.20
2019-02-18T21:37:43.286Z,74.20
2019-02-18T21:40:14.543Z,74.40
2019-02-18T21:42:45.431Z,74.90
2019-02-18T21:45:16.267Z,74.70
2019-02-18T21:47:47.415Z,74.40
2019-02-18T21:50:19.345Z,74.70
2019-02-18T21:52:50.544Z,75.40
2019-02-18T21:55:21.483Z,74.80
2019-02-18T21:57:52.377Z,74.40
2019-02-18T22:00:24.774Z,74.60
2019-02-18T22:02:56.222Z,75.10
2019-02-18T22:05:27.925Z,75.60
2019-02-18T22:08:09.635Z,75.90
2019-02-18T22:10:40.948Z,75.80
2019-02-18T22:13:11.694Z,76.10
2019-02-18T22:15:42.410Z,76.40
2019-02-18T22:18:13.425Z,76.40
2019-02-18T22:20:44.068Z,76.10
2019-02-18T22:23:14.833Z,75.90
2019-02-18T22:25:45.813Z,75.80
2019-02-18T22:28:16.566Z,76.00
2019-02-18T22:30:47.859Z,75.90
2019-02-18T22:33:18.898Z,76.20
2019-02-18T22:35:49.834Z,75.80
2019-02-18T22:38:20.808Z,76.10
2019-02-18T22:40:51.607Z,76.20
2019-02-18T22:43:22.550Z,76.70
2019-02-18T22:45:55.017Z,76.80
2019-02-18T22:48:25.889Z,76.90
2019-02-18T22:50:56.415Z,77.50
2019-02-18T22:53:28.857Z,77.50
2019-02-18T22:55:59.848Z,78.10
2019-02-18T22:58:30.432Z,77.80
2019-02-18T23:01:03.035Z,78.10
2019-02-18T23:03:34.159Z,78.10
2019-02-18T23:06:05.154Z,78.10
2019-02-18T23:08:35.835Z,78.00
2019-02-18T23:11:06.784Z,78.50
2019-02-18T23:13:37.497Z,78.50
2019-02-18T23:16:08.321Z,78.00
2019-02-18T23:18:39.390Z,78.00
2019-02-18T23:21:10.383Z,78.90
2019-02-18T23:23:41.754Z,78.50
2019-02-18T23:26:12.804Z,79.10
2019-02-18T23:28:44.015Z,79.50
2019-02-18T23:31:15.411Z,79.50
2019-02-18T23:33:46.104Z,79.30
2019-02-18T23:36:16.680Z,79.40
2019-02-18T23:38:47.898Z,79.50
2019-02-18T23:41:18.614Z,79.50
2019-02-18T23:43:49.331Z,79.40
2019-02-18T23:46:20.158Z,78.80
2019-02-18T23:48:50.660Z,79.00
2019-02-18T23:51:21.340Z,79.00
2019-02-18T23:53:51.928Z,79.00
2019-02-18T23:56:23.049Z,78.40
2019-02-18T23:58:53.899Z,78.70
